Time;durP1;ratioP1;P1;durP2;ratioP2;P2;SDS_P1;SDS_P2;PMS_P1;PMS_P2;Temp;Humidity;BMP_temperature;BMP_pressure;BME280_temperature;BME280_humidity;BME280_pressure;Samples;Min_cycle;Max_cycle;Signal;HPM_P1;HPM_P2
2023/01/19 00:00:54;;;;;;;0.80;0.80;;;2.20;70.40;;;1.07;58.26;93502.28;5075700;28;20199;-33
2023/01/19 00:03:21;;;;;;;0.90;0.90;;;2.20;70.40;;;1.13;58.42;93511.16;5075482;28;20215;-39
2023/01/19 00:05:50;;;;;;;0.80;0.80;;;2.30;70.50;;;1.22;58.43;93517.09;5075137;28;20187;-39
2023/01/19 00:08:17;;;;;;;0.70;0.70;;;2.30;70.50;;;1.28;58.25;93516.41;5075197;28;20195;-40
2023/01/19 00:10:49;;;;;;;0.70;0.70;;;2.30;70.50;;;1.34;58.30;93514.94;5075625;28;20192;-33
2023/01/19 00:13:17;;;;;;;0.70;0.70;;;2.40;70.60;;;1.38;58.28;93506.69;5075401;28;20186;-34
2023/01/19 00:15:44;;;;;;;0.80;0.80;;;2.50;70.60;;;1.44;58.02;93508.56;5074835;28;20210;-32
2023/01/19 00:18:11;;;;;;;0.70;0.70;;;2.50;70.60;;;1.50;58.36;93511.44;5075598;28;20192;-34
2023/01/19 00:20:40;;;;;;;0.80;0.80;;;2.50;70.60;;;1.56;58.31;93513.34;5075902;28;20213;-40
2023/01/19 00:23:08;;;;;;;0.70;0.70;;;2.60;70.70;;;1.63;58.18;93508.31;5058213;28;20226;-34
2023/01/19 00:25:41;;;;;;;0.80;0.80;;;2.70;70.70;;;1.68;58.05;93519.72;5049253;28;20248;-38
2023/01/19 00:28:14;;;;;;;0.70;0.70;;;2.70;70.70;;;1.74;57.85;93515.66;4993483;28;20257;-40
2023/01/19 00:30:43;;;;;;;0.90;0.90;;;2.80;70.80;;;1.77;57.88;93512.75;5060797;28;20200;-40
2023/01/19 00:33:14;;;;;;;0.80;0.80;;;2.80;70.80;;;1.79;57.55;93518.53;4993187;28;20202;-39
2023/01/19 00:35:42;;;;;;;0.70;0.70;;;2.80;70.60;;;1.83;57.63;93524.16;5058776;28;20182;-37
2023/01/19 00:38:12;;;;;;;0.90;0.90;;;2.90;70.40;;;1.84;57.48;93528.34;4992971;28;20209;-39
2023/01/19 00:40:39;;;;;;;0.80;0.80;;;2.90;70.30;;;1.83;57.42;93526.75;4993115;28;20209;-33
2023/01/19 00:43:06;;;;;;;0.80;0.80;;;2.90;70.30;;;1.82;57.35;93531.13;4992979;28;20222;-33
2023/01/19 00:45:34;;;;;;;0.70;0.70;;;3.00;70.20;;;1.82;57.50;93531.13;4993646;28;20190;-33
2023/01/19 00:48:01;;;;;;;0.80;0.80;;;3.00;70.20;;;1.81;57.87;93529.50;4992951;28;20245;-37
2023/01/19 00:50:30;;;;;;;0.80;0.80;;;3.00;70.20;;;1.87;57.97;93528.03;4992853;28;20186;-39
2023/01/19 00:53:02;;;;;;;0.80;0.80;;;3.00;70.40;;;1.88;57.99;93530.44;4992820;28;20218;-35
2023/01/19 00:55:32;;;;;;;0.80;0.80;;;3.00;71.40;;;1.90;57.92;93528.47;5058265;28;20243;-34
2023/01/19 00:57:59;;;;;;;0.90;0.90;;;3.00;70.60;;;1.87;57.93;93531.41;4992975;28;20194;-34
2023/01/19 01:00:26;;;;;;;0.80;0.80;;;3.00;70.60;;;1.86;58.02;93529.00;5059746;28;20216;-33
2023/01/19 01:02:53;;;;;;;0.80;0.80;;;3.00;71.40;;;1.83;58.08;93534.50;5059353;28;20283;-33
2023/01/19 01:05:21;;;;;;;0.77;0.77;;;3.00;70.90;;;1.80;58.25;93538.22;4992663;28;20676;-33
2023/01/19 01:07:48;;;;;;;0.80;0.80;;;3.00;70.90;;;1.79;58.18;93541.00;4992917;28;20190;-33
2023/01/19 01:10:23;;;;;;;0.80;0.80;;;2.90;70.90;;;1.75;58.41;93538.75;5059998;28;20206;-33
2023/01/19 01:12:51;;;;;;;0.70;0.70;;;2.90;70.90;;;1.75;58.77;93530.19;4992856;28;20210;-33
2023/01/19 01:15:25;;;;;;;0.90;0.90;;;2.80;70.80;;;1.74;58.55;93534.53;4992700;28;20208;-33
2023/01/19 01:17:53;;;;;;;0.70;0.70;;;2.80;70.80;;;1.74;58.50;93531.16;4992492;28;20229;-33
2023/01/19 01:20:26;;;;;;;0.70;0.70;;;2.80;70.90;;;1.73;58.70;93525.22;4992541;28;20528;-33
2023/01/19 01:22:55;;;;;;;0.70;0.70;;;2.80;70.80;;;1.72;58.66;93515.84;4992470;28;20202;-33
2023/01/19 01:25:25;;;;;;;0.80;0.80;;;2.80;70.80;;;1.71;58.82;93511.63;4992147;28;20237;-33
2023/01/19 01:27:53;;;;;;;0.70;0.70;;;2.80;71.00;;;1.71;58.92;93516.81;4992447;28;20676;-33
2023/01/19 01:30:20;;;;;;;0.70;0.70;;;2.80;70.90;;;1.71;58.81;93516.00;5059437;28;20205;-33
2023/01/19 01:32:48;;;;;;;0.80;0.80;;;2.80;71.00;;;1.70;58.82;93525.53;5059344;28;20204;-33
2023/01/19 01:35:16;;;;;;;0.68;0.68;;;2.80;70.80;;;1.71;59.01;93523.75;4994533;28;20574;-33
2023/01/19 01:37:43;;;;;;;0.80;0.80;;;2.80;71.00;;;1.70;59.06;93517.00;4995847;28;20255;-33
2023/01/19 01:40:16;;;;;;;0.80;0.80;;;2.80;72.10;;;1.74;58.99;93529.38;4995812;28;20202;-33
2023/01/19 01:42:44;;;;;;;0.70;0.70;;;2.80;71.10;;;1.76;59.10;93518.88;4996412;28;20210;-33
2023/01/19 01:45:28;;;;;;;0.80;0.80;;;2.80;71.20;;;1.81;59.03;93519.16;4995453;28;20289;-33
2023/01/19 01:48:01;;;;;;;0.80;0.80;;;2.80;71.30;;;1.88;58.88;93517.50;5063313;28;20202;-33
2023/01/19 01:50:31;;;;;;;0.80;0.80;;;2.90;71.30;;;1.93;59.10;93517.00;4995591;28;20276;-33
2023/01/19 01:53:05;;;;;;;0.80;0.80;;;2.90;71.30;;;1.99;59.00;93525.81;5063380;28;20682;-33
2023/01/19 01:55:45;;;;;;;0.70;0.70;;;3.00;71.40;;;2.03;59.07;93535.66;5062027;28;20182;-33
2023/01/19 01:58:15;;;;;;;0.80;0.80;;;2.90;71.60;;;2.08;59.28;93540.31;5060263;28;20189;-33
2023/01/19 02:03:28;;;;;;;0.80;0.80;;;3.00;71.90;;;2.18;59.27;93525.34;4995439;28;20256;-33
2023/01/19 02:05:59;;;;;;;0.70;0.70;;;3.00;71.80;;;2.22;59.17;93530.97;5062925;28;20208;-33
2023/01/19 02:14:14;;;;;;;0.80;0.80;;;3.20;72.10;;;2.30;59.69;93525.72;5052103;28;20269;-33
2023/01/19 02:16:41;;;;;;;0.80;0.80;;;3.20;72.40;;;2.33;59.62;93521.97;4995599;28;20501;-33
2023/01/19 02:19:16;;;;;;;0.65;0.65;;;3.20;72.30;;;2.34;59.27;93510.66;4995128;28;20616;-33
2023/01/19 02:22:10;;;;;;;0.70;0.70;;;3.20;72.50;;;2.32;59.47;93505.66;5062611;28;20641;-33
2023/01/19 02:24:38;;;;;;;0.90;0.90;;;3.20;72.40;;;2.28;59.71;93517.31;4995692;28;20570;-33
2023/01/19 02:27:06;;;;;;;0.73;0.73;;;3.20;72.50;;;2.26;60.33;93510.72;4978166;28;20319;-33
2023/01/19 02:29:34;;;;;;;0.80;0.80;;;3.00;72.70;;;2.20;60.23;93500.09;4994949;28;20209;-33
2023/01/19 02:32:02;;;;;;;0.75;0.75;;;3.00;73.00;;;2.15;60.63;93501.59;4995376;28;20198;-33
2023/01/19 02:34:29;;;;;;;0.90;0.90;;;3.10;73.00;;;2.12;60.63;93512.31;4994717;28;20191;-33
2023/01/19 02:36:58;;;;;;;0.90;0.90;;;3.00;73.20;;;2.10;60.81;93512.50;4995088;28;20221;-33
2023/01/19 02:39:38;;;;;;;0.80;0.80;;;2.90;73.10;;;2.07;60.83;93507.66;4994863;28;20524;-33
2023/01/19 02:42:31;;;;;;;0.80;0.80;;;3.00;73.20;;;2.05;61.13;93507.00;5062164;28;20182;-33
2023/01/19 02:44:58;;;;;;;0.70;0.70;;;2.90;73.80;;;2.01;61.26;93511.72;5061750;28;20198;-33
2023/01/19 02:47:25;;;;;;;0.90;0.90;;;2.90;74.60;;;2.00;61.05;93504.97;4995143;28;20314;-34
2023/01/19 02:49:59;;;;;;;0.80;0.80;;;2.90;73.60;;;1.99;60.86;93505.13;4994715;28;20206;-33
2023/01/19 02:52:27;;;;;;;0.80;0.80;;;2.90;73.60;;;1.98;61.11;93508.69;4994586;28;20273;-33
2023/01/19 02:55:04;;;;;;;0.70;0.70;;;2.90;73.50;;;1.97;61.21;93501.94;5045248;28;20198;-33
2023/01/19 02:57:42;;;;;;;0.80;0.80;;;3.00;73.70;;;1.96;61.60;93498.53;5061750;28;20202;-33
2023/01/19 03:00:27;;;;;;;0.77;0.77;;;2.90;73.70;;;1.96;61.13;93495.16;4994496;28;20182;-33
2023/01/19 03:03:39;;;;;;;0.80;0.80;;;3.00;74.00;;;1.90;61.87;93502.63;4995032;28;20206;-33
2023/01/19 03:06:23;;;;;;;0.70;0.70;;;2.90;74.50;;;1.88;62.26;93504.56;5061514;28;20193;-33
2023/01/19 03:09:03;;;;;;;0.90;0.90;;;2.80;74.60;;;1.90;62.46;93506.97;4994461;28;20517;-33
2023/01/19 03:11:38;;;;;;;0.90;0.90;;;2.80;74.90;;;1.95;62.45;93506.47;5061695;28;20594;-33
2023/01/19 03:14:17;;;;;;;0.80;0.80;;;2.80;75.00;;;1.99;62.35;93505.13;4994380;28;20178;-33
2023/01/19 03:16:54;;;;;;;0.90;0.90;;;2.80;74.90;;;2.05;62.17;93513.00;4994845;28;20186;-33
2023/01/19 03:19:33;;;;;;;0.70;0.70;;;2.90;74.70;;;2.13;61.73;93516.50;4994267;28;20575;-33
2023/01/19 03:22:05;;;;;;;0.80;0.80;;;2.90;74.40;;;2.18;62.17;93525.34;5061435;28;20183;-33
2023/01/19 03:24:38;;;;;;;0.80;0.80;;;3.00;74.50;;;2.24;61.57;93531.59;4993964;28;20206;-33
2023/01/19 03:27:13;;;;;;;0.70;0.70;;;3.10;74.30;;;2.32;61.42;93528.94;5060351;28;20324;-33
2023/01/19 03:29:47;;;;;;;0.70;0.70;;;3.20;74.20;;;2.39;61.67;93532.44;5061219;28;20610;-33
2023/01/19 03:32:18;;;;;;;0.70;0.70;;;3.20;74.30;;;2.45;61.51;93540.47;5061310;28;20540;-33
2023/01/19 03:34:47;;;;;;;0.60;0.60;;;3.30;74.30;;;2.49;61.66;93547.72;5060917;28;20183;-33
2023/01/19 03:37:16;;;;;;;0.70;0.70;;;3.30;75.10;;;2.53;61.47;93548.19;4994060;28;20190;-33
2023/01/19 03:39:44;;;;;;;0.80;0.80;;;3.30;74.20;;;2.59;61.19;93552.66;5061466;28;20205;-33
2023/01/19 03:42:15;;;;;;;0.70;0.70;;;3.40;74.10;;;2.61;61.20;93558.44;4993921;28;20233;-37
2023/01/19 03:44:44;;;;;;;0.70;0.70;;;3.50;74.20;;;2.64;61.51;93563.28;5060918;28;20210;-36
2023/01/19 03:47:13;;;;;;;0.77;0.77;;;3.50;74.20;;;2.67;61.16;93559.53;5060818;28;20191;-39
2023/01/19 03:49:44;;;;;;;0.68;0.68;;;3.50;74.00;;;2.68;61.27;93554.16;5061090;28;20248;-37
2023/01/19 03:52:11;;;;;;;0.70;0.70;;;3.50;74.00;;;2.72;61.22;93552.84;4993910;28;20189;-41
2023/01/19 03:54:39;;;;;;;0.80;0.80;;;3.60;74.10;;;2.72;61.41;93552.84;4993990;28;20231;-40
2023/01/19 03:57:07;;;;;;;0.70;0.70;;;3.50;74.20;;;2.72;61.50;93555.44;4993404;28;20194;-40
2023/01/19 03:59:34;;;;;;;0.70;0.70;;;3.50;74.30;;;2.70;61.16;93544.44;5061072;28;20213;-39
2023/01/19 04:02:01;;;;;;;0.80;0.80;;;3.50;74.30;;;2.71;61.20;93550.41;5060659;28;20198;-41
2023/01/19 04:04:28;;;;;;;0.80;0.80;;;3.50;74.00;;;2.72;61.41;93562.38;4993473;28;20206;-32
2023/01/19 04:06:56;;;;;;;0.70;0.70;;;3.50;74.10;;;2.74;61.55;93560.44;5060542;28;20186;-33
2023/01/19 04:09:24;;;;;;;0.80;0.80;;;3.60;74.30;;;2.72;61.23;93572.72;4994031;28;20190;-38
2023/01/19 04:11:51;;;;;;;0.70;0.70;;;3.60;74.30;;;2.72;61.36;93585.69;5059824;28;20191;-33
2023/01/19 04:14:19;;;;;;;0.70;0.70;;;3.50;74.20;;;2.72;61.28;93599.44;5060594;28;20283;-39
2023/01/19 04:16:46;;;;;;;0.70;0.70;;;3.60;74.10;;;2.74;61.05;93601.84;5060351;28;20285;-34
2023/01/19 04:19:13;;;;;;;0.70;0.70;;;3.60;74.20;;;2.75;61.31;93600.88;5060491;28;20279;-42
2023/01/19 04:21:40;;;;;;;0.70;0.70;;;3.60;74.10;;;2.80;60.92;93605.53;4993383;28;20198;-33
2023/01/19 04:24:09;;;;;;;0.70;0.70;;;3.60;74.10;;;2.80;60.91;93603.72;5060450;28;20782;-40
2023/01/19 04:26:36;;;;;;;0.90;0.90;;;3.70;74.00;;;2.85;61.14;93608.38;4992427;28;20669;-33
2023/01/19 04:29:04;;;;;;;0.80;0.80;;;3.70;73.90;;;2.86;61.06;93622.94;4993544;28;20518;-33
2023/01/19 04:31:31;;;;;;;0.80;0.80;;;3.80;74.00;;;2.86;61.08;93641.88;4993131;28;20512;-33
2023/01/19 04:33:58;;;;;;;0.80;0.80;;;3.70;74.10;;;2.86;60.97;93623.75;4993046;28;20263;-33
2023/01/19 04:36:26;;;;;;;0.80;0.80;;;3.70;73.90;;;2.87;61.33;93637.50;4993328;28;20285;-33
2023/01/19 04:38:53;;;;;;;0.70;0.70;;;3.80;74.00;;;2.87;61.29;93642.69;4993048;28;20509;-33
2023/01/19 04:41:20;;;;;;;0.73;0.73;;;3.80;74.00;;;2.90;61.02;93644.13;4992345;28;20190;-33
2023/01/19 04:43:48;;;;;;;0.70;0.70;;;3.80;73.90;;;2.90;61.11;93654.47;4993161;28;20675;-33
2023/01/19 04:46:15;;;;;;;0.80;0.80;;;3.80;73.90;;;2.91;61.15;93656.88;5060312;28;20202;-33
2023/01/19 04:48:42;;;;;;;0.80;0.80;;;3.80;73.80;;;2.90;61.20;93650.09;4993094;28;20247;-33
2023/01/19 04:51:09;;;;;;;0.80;0.80;;;3.80;73.80;;;2.90;61.25;93657.84;4993180;28;20200;-33
2023/01/19 04:53:36;;;;;;;0.70;0.70;;;3.80;73.80;;;2.92;60.88;93663.69;4992825;28;20194;-33
2023/01/19 04:56:03;;;;;;;0.70;0.70;;;3.80;73.80;;;2.92;61.36;93658.50;4993074;28;20229;-33
2023/01/19 04:58:30;;;;;;;0.80;0.80;;;3.80;73.90;;;2.91;61.22;93667.25;4993179;28;20210;-33
2023/01/19 05:00:58;;;;;;;0.75;0.75;;;3.80;73.80;;;2.88;61.21;93678.75;4992808;28;20656;-33
2023/01/19 05:03:25;;;;;;;0.80;0.80;;;3.80;73.80;;;2.90;61.11;93682.97;5059410;28;20214;-33
2023/01/19 05:05:53;;;;;;;0.80;0.80;;;3.80;73.80;;;2.90;61.09;93688.16;5059078;28;20253;-33
2023/01/19 05:08:20;;;;;;;0.80;0.80;;;3.80;73.80;;;2.94;60.77;93694.56;4992869;28;20267;-33
2023/01/19 05:10:47;;;;;;;0.80;0.80;;;3.80;73.80;;;2.94;60.80;93695.41;5063395;28;20190;-33
2023/01/19 05:13:14;;;;;;;0.80;0.80;;;3.90;73.60;;;2.95;60.98;93701.38;4996096;28;20194;-33
2023/01/19 05:15:41;;;;;;;0.70;0.70;;;3.90;73.60;;;2.96;61.11;93695.22;4996230;28;20255;-33
2023/01/19 05:18:08;;;;;;;0.70;0.70;;;3.90;73.60;;;2.95;60.82;93691.81;4996154;28;20649;-33
2023/01/19 05:20:35;;;;;;;0.70;0.70;;;3.90;73.60;;;2.95;60.82;93688.41;4996054;28;20194;-33
2023/01/19 05:23:02;;;;;;;0.80;0.80;;;3.90;73.70;;;2.93;60.69;93686.00;4995849;28;20198;-33
2023/01/19 05:25:30;;;;;;;0.70;0.70;;;3.90;73.70;;;2.94;60.91;93697.16;4994933;28;20249;-33
2023/01/19 05:27:57;;;;;;;0.70;0.70;;;3.90;73.70;;;2.91;60.98;93687.16;4996116;28;20193;-33
2023/01/19 05:30:24;;;;;;;0.80;0.80;;;3.90;73.60;;;2.91;60.91;93693.13;4995884;28;20259;-32
2023/01/19 05:32:51;;;;;;;0.77;0.77;;;3.80;73.60;;;2.91;60.87;93692.34;5063338;28;20194;-33
2023/01/19 05:35:18;;;;;;;0.80;0.80;;;3.70;73.70;;;2.87;61.01;93697.06;4995582;28;20526;-33
2023/01/19 05:37:57;;;;;;;0.80;0.80;;;3.70;73.80;;;2.85;61.10;93702.41;5056869;28;20186;-33
2023/01/19 05:40:24;;;;;;;0.80;0.80;;;3.70;73.80;;;2.86;61.14;93709.19;4995684;28;20629;-33
2023/01/19 05:42:52;;;;;;;0.80;0.80;;;3.70;73.90;;;2.88;60.38;93703.84;4995595;28;20223;-33
2023/01/19 05:45:19;;;;;;;0.90;0.90;;;3.80;73.80;;;2.86;61.02;93704.03;4995944;28;20213;-33
2023/01/19 05:47:46;;;;;;;0.80;0.80;;;3.80;73.80;;;2.86;60.88;93706.59;4995699;28;20194;-33
2023/01/19 05:50:13;;;;;;;0.80;0.80;;;3.70;73.80;;;2.87;60.64;93710.81;5062892;28;20194;-33
2023/01/19 05:52:40;;;;;;;0.70;0.70;;;3.70;73.70;;;2.86;60.63;93714.38;5063306;28;20199;-33
2023/01/19 05:55:08;;;;;;;0.60;0.60;;;3.70;73.70;;;2.83;60.88;93712.16;4995378;28;20199;-33
2023/01/19 05:57:35;;;;;;;0.80;0.80;;;3.70;73.60;;;2.81;60.78;93703.75;5063146;28;20198;-33
2023/01/19 06:00:04;;;;;;;0.80;0.80;;;3.70;73.70;;;2.82;60.82;93705.34;4995434;28;20260;-33
2023/01/19 06:02:35;;;;;;;0.70;0.70;;;3.70;73.60;;;2.83;60.97;93703.56;4995680;28;20625;-33
2023/01/19 06:05:03;;;;;;;0.80;0.80;;;3.70;73.60;;;2.84;60.92;93703.38;4995187;28;20593;-33
2023/01/19 06:07:30;;;;;;;0.80;0.80;;;3.70;73.60;;;2.86;60.82;93704.03;4978309;28;20198;-33
2023/01/19 06:09:58;;;;;;;0.80;0.80;;;3.70;73.60;;;2.87;60.58;93699.66;4995464;28;20259;-33
2023/01/19 06:12:25;;;;;;;0.70;0.70;;;3.70;73.60;;;2.88;60.20;93704.66;4995691;28;20204;-34
2023/01/19 06:14:52;;;;;;;0.70;0.70;;;3.70;73.60;;;2.87;60.41;93704.84;5062322;28;20221;-33
2023/01/19 06:17:19;;;;;;;0.80;0.80;;;3.70;73.60;;;2.86;60.56;93711.00;4995038;28;20281;-33
2023/01/19 06:19:47;;;;;;;0.80;0.80;;;3.70;74.40;;;2.82;60.68;93713.13;4994666;28;20633;-33
2023/01/19 06:22:14;;;;;;;0.82;0.82;;;3.70;73.50;;;2.79;60.29;93723.81;5062177;28;20250;-33
2023/01/19 06:24:41;;;;;;;0.80;0.80;;;3.70;73.40;;;2.77;60.73;93719.78;4995090;28;20233;-33
2023/01/19 06:27:08;;;;;;;0.80;0.80;;;3.70;73.40;;;2.75;60.53;93722.56;4995309;28;20234;-33
2023/01/19 06:29:35;;;;;;;0.70;0.70;;;3.80;73.30;;;2.74;60.63;93728.72;4994972;28;20201;-33
2023/01/19 06:32:02;;;;;;;0.70;0.70;;;3.80;73.30;;;2.75;60.26;93729.50;5062336;28;20205;-33
2023/01/19 06:34:29;;;;;;;0.80;0.80;;;3.80;73.20;;;2.74;60.77;93733.91;4994909;28;20268;-33
2023/01/19 06:36:57;;;;;;;0.80;0.80;;;3.80;73.20;;;2.75;60.59;93732.09;4994788;28;20205;-33
2023/01/19 06:39:26;;;;;;;0.70;0.70;;;3.80;73.20;;;2.75;60.49;93740.69;4995024;28;20295;-33
2023/01/19 06:41:53;;;;;;;0.80;0.80;;;3.80;73.20;;;2.76;60.71;93757.00;4994920;28;20190;-33
2023/01/19 06:44:21;;;;;;;0.80;0.80;;;3.80;73.20;;;2.72;60.67;93759.97;4994642;28;20287;-33
2023/01/19 06:46:48;;;;;;;0.80;0.80;;;3.80;73.30;;;2.72;60.61;93761.72;4977733;28;20233;-33
2023/01/19 06:49:15;;;;;;;0.70;0.70;;;3.70;73.20;;;2.72;60.67;93759.97;4994672;28;20198;-33
2023/01/19 06:51:42;;;;;;;0.70;0.70;;;3.70;73.20;;;2.73;60.47;93771.13;5062174;28;20195;-33
2023/01/19 06:54:09;;;;;;;0.70;0.70;;;3.70;73.30;;;2.70;60.84;93774.84;4994604;28;20618;-33
2023/01/19 06:56:36;;;;;;;0.70;0.70;;;3.70;73.30;;;2.69;60.85;93787.97;5062190;28;20207;-32
2023/01/19 06:59:04;;;;;;;0.80;0.80;;;3.70;73.40;;;2.69;61.09;93786.19;4994526;28;20198;-33
2023/01/19 07:01:32;;;;;;;0.80;0.80;;;3.70;73.40;;;2.71;60.97;93794.59;4994525;28;20280;-33
2023/01/19 07:03:59;;;;;;;0.70;0.70;;;3.70;73.50;;;2.69;60.80;93799.13;4994468;28;20210;-33
2023/01/19 07:06:26;;;;;;;0.80;0.80;;;3.70;73.60;;;2.69;60.90;93793.94;4994382;28;20191;-33
2023/01/19 07:08:53;;;;;;;0.80;0.80;;;3.70;73.50;;;2.71;60.87;93786.81;4995086;28;20194;-33
2023/01/19 07:11:20;;;;;;;0.80;0.80;;;3.70;73.50;;;2.73;60.95;93781.47;4994313;28;20224;-33
2023/01/19 07:13:56;;;;;;;0.80;0.80;;;3.70;73.50;;;2.75;60.87;93789.88;4994382;28;20182;-33
2023/01/19 07:16:23;;;;;;;0.70;0.70;;;3.70;73.50;;;2.74;60.84;93782.28;4994138;28;20222;-33
2023/01/19 07:18:50;;;;;;;0.70;0.70;;;3.70;73.50;;;2.72;60.89;93778.09;4994207;28;20575;-33
2023/01/19 07:21:18;;;;;;;0.80;0.80;;;3.70;73.50;;;2.72;60.65;93780.69;4994185;28;20656;-33
2023/01/19 07:23:51;;;;;;;0.80;0.80;;;3.70;73.50;;;2.71;60.93;93780.81;4994170;28;20569;-33
2023/01/19 07:26:20;;;;;;;0.80;0.80;;;3.60;73.60;;;2.71;61.08;93781.66;4993950;28;20230;-33
2023/01/19 07:28:47;;;;;;;0.70;0.70;;;3.60;73.60;;;2.68;60.52;93778.59;4994018;28;20195;-33
2023/01/19 07:31:15;;;;;;;0.80;0.80;;;3.60;73.50;;;2.66;60.65;93783.13;4993610;28;20277;-33
2023/01/19 07:33:43;;;;;;;0.80;0.80;;;3.60;73.60;;;2.63;60.68;93773.94;4993599;28;20198;-33
2023/01/19 07:36:11;;;;;;;0.80;0.80;;;3.50;73.50;;;2.61;60.61;93788.03;5060482;28;20205;-33
2023/01/19 07:38:37;;;;;;;0.70;0.70;;;3.50;73.50;;;2.60;60.42;93786.41;5061127;28;20751;-33
2023/01/19 07:41:08;;;;;;;0.70;0.70;;;3.40;73.50;;;2.58;60.63;93786.59;4993920;28;20202;-33
2023/01/19 07:43:35;;;;;;;0.80;0.80;;;3.40;73.50;;;2.56;60.70;93786.75;4994066;28;20277;-33
2023/01/19 07:46:05;;;;;;;0.80;0.80;;;3.50;73.70;;;2.60;60.54;93789.81;4993691;28;20198;-33
2023/01/19 07:48:32;;;;;;;0.80;0.80;;;3.40;74.50;;;2.57;60.63;93784.97;4994088;28;20205;-33
2023/01/19 07:51:07;;;;;;;0.70;0.70;;;3.40;73.50;;;2.58;60.16;93790.97;4993767;28;20186;-32
2023/01/19 07:53:38;;;;;;;0.70;0.70;;;3.40;73.40;;;2.56;60.28;93791.13;4994026;28;20236;-33
2023/01/19 07:56:06;;;;;;;0.90;0.90;;;3.30;73.40;;;2.54;60.13;93801.66;4993645;28;20263;-33
2023/01/19 07:58:33;;;;;;;0.80;0.80;;;3.30;74.30;;;2.52;60.14;93801.00;4993609;28;20247;-33
2023/01/19 08:01:09;;;;;;;0.90;0.90;;;3.30;73.40;;;2.54;59.81;93804.22;4993791;28;20194;-33
2023/01/19 08:03:36;;;;;;;0.80;0.80;;;3.20;73.20;;;2.51;59.87;93807.16;4993660;28;20206;-33
2023/01/19 08:06:04;;;;;;;0.70;0.70;;;3.20;73.30;;;2.53;60.07;93802.63;5061055;28;20198;-33
2023/01/19 08:08:33;;;;;;;0.70;0.70;;;3.20;73.30;;;2.54;59.93;93817.19;5060307;28;20255;-33
2023/01/19 08:11:00;;;;;;;0.80;0.80;;;3.30;73.20;;;2.56;59.87;93812.66;4993717;28;20205;-33
2023/01/19 08:13:27;;;;;;;0.70;0.70;;;3.40;73.20;;;2.61;60.03;93816.50;5060309;28;20198;-33
2023/01/19 08:15:54;;;;;;;0.70;0.70;;;3.40;73.20;;;2.62;59.61;93820.69;4993129;28;20694;-33
2023/01/19 08:18:21;;;;;;;0.70;0.70;;;3.50;73.00;;;2.64;59.55;93811.78;4993282;28;20225;-33
2023/01/19 08:20:48;;;;;;;0.70;0.70;;;3.50;72.90;;;2.65;58.98;93826.34;4993259;28;20208;-33
2023/01/19 08:23:16;;;;;;;0.80;0.80;;;3.50;72.60;;;2.64;58.80;93819.56;4993292;28;20198;-33
2023/01/19 08:25:44;;;;;;;0.80;0.80;;;3.50;72.50;;;2.67;59.07;93814.06;4993036;28;20234;-33
2023/01/19 08:28:14;;;;;;;0.70;0.70;;;3.50;72.70;;;2.69;58.90;93819.84;4993195;28;20216;-33
2023/01/19 08:30:43;;;;;;;0.70;0.70;;;3.40;72.30;;;2.70;58.73;93812.91;4993180;28;20194;-33
2023/01/19 08:33:13;;;;;;;0.70;0.70;;;3.50;72.50;;;2.75;58.68;93812.38;4993413;28;20195;-33
2023/01/19 08:35:46;;;;;;;0.80;0.80;;;3.50;72.40;;;2.77;58.66;93813.00;5059798;28;20505;-33
2023/01/19 08:38:13;;;;;;;0.70;0.70;;;3.50;72.30;;;2.80;58.39;93810.88;4993145;28;20186;-33
2023/01/19 08:40:41;;;;;;;0.70;0.70;;;3.60;72.30;;;2.86;58.58;93817.16;5060153;28;20194;-33
2023/01/19 08:43:13;;;;;;;0.70;0.70;;;3.70;72.30;;;2.95;58.79;93812.75;4992805;28;20202;-33
2023/01/19 08:45:46;;;;;;;0.60;0.60;;;3.70;72.90;;;3.03;58.42;93818.66;4992854;28;20210;-33
2023/01/19 08:48:22;;;;;;;0.70;0.70;;;3.80;72.10;;;3.10;57.61;93820.56;4992379;28;20197;-33
2023/01/19 08:50:50;;;;;;;0.80;0.80;;;3.90;71.60;;;3.11;56.81;93820.38;4992991;28;20606;-33
2023/01/19 08:53:21;;;;;;;0.80;0.80;;;3.90;71.30;;;3.11;56.93;93822.97;4960042;28;20202;-33
2023/01/19 08:55:54;;;;;;;0.70;0.70;;;3.90;71.30;;;3.14;55.91;93825.22;4992914;28;20193;-33
2023/01/19 08:58:21;;;;;;;0.80;0.80;;;3.90;69.70;;;3.08;54.64;93825.94;4993122;28;20193;-33
2023/01/19 09:00:51;;;;;;;0.80;0.80;;;3.80;69.30;;;3.01;55.13;93833.56;4992747;28;20204;-33
2023/01/19 09:03:21;;;;;;;0.80;0.80;;;3.80;69.90;;;2.98;55.27;93840.88;4992854;28;20190;-33
2023/01/19 09:05:48;;;;;;;0.70;0.70;;;3.80;69.80;;;2.95;55.04;93841.22;4992995;28;20214;-33
2023/01/19 09:08:15;;;;;;;0.70;0.70;;;3.80;69.60;;;2.94;55.09;93847.38;5043344;28;20187;-33
2023/01/19 09:10:48;;;;;;;0.70;0.70;;;3.70;69.50;;;2.91;54.52;93845.16;4992698;28;20621;-33
2023/01/19 09:13:17;;;;;;;0.70;0.70;;;3.70;69.50;;;2.90;55.11;93844.31;4992856;28;20251;-33
2023/01/19 09:15:45;;;;;;;0.70;0.70;;;3.80;69.70;;;2.87;54.84;93840.31;4991917;28;20198;-33
2023/01/19 09:18:16;;;;;;;0.70;0.70;;;3.80;69.70;;;2.90;55.11;93846.13;4992643;28;20593;-33
2023/01/19 09:20:46;;;;;;;0.70;0.70;;;3.80;69.60;;;2.94;54.98;93850.81;5059490;28;20206;-33
2023/01/19 09:23:17;;;;;;;0.70;0.70;;;3.80;69.40;;;2.99;55.01;93850.25;4992584;28;20187;-33
2023/01/19 09:25:46;;;;;;;0.80;0.80;;;3.80;69.10;;;3.01;53.35;93861.25;4992631;28;20238;-33
2023/01/19 09:28:16;;;;;;;0.80;0.80;;;3.80;67.80;;;2.96;53.33;93850.63;4992297;28;20194;-33
2023/01/19 09:30:44;;;;;;;0.70;0.70;;;3.80;68.40;;;3.01;54.15;93856.09;4992410;28;20607;-33
2023/01/19 09:33:16;;;;;;;0.60;0.60;;;3.80;68.90;;;3.04;54.08;93859.13;4992348;28;20202;-33
2023/01/19 09:35:46;;;;;;;0.70;0.70;;;3.80;68.40;;;3.11;54.00;93867.03;4992352;28;20206;-33
2023/01/19 09:38:15;;;;;;;0.80;0.80;;;3.90;68.90;;;3.20;54.51;93860.81;5059007;28;20201;-33
2023/01/19 09:40:48;;;;;;;0.70;0.70;;;4.00;68.90;;;3.29;54.24;93858.97;5058962;28;20200;-33
2023/01/19 09:43:57;;;;;;;0.68;0.68;;;4.00;68.80;;;3.38;53.99;93864.91;4975450;28;20601;-33
2023/01/19 09:46:40;;;;;;;0.70;0.70;;;4.20;68.80;;;3.42;52.61;93850.63;5004663;28;20555;-33
2023/01/19 09:49:26;;;;;;;0.70;0.70;;;4.20;67.60;;;3.46;53.12;93851.88;5054524;28;20271;-33
2023/01/19 09:51:53;;;;;;;0.70;0.70;;;4.30;67.60;;;3.51;52.53;93851.38;5059246;28;20516;-33
2023/01/19 09:54:46;;;;;;;0.75;0.75;;;4.30;67.80;;;3.52;51.26;93856.38;4992403;28;20198;-33
2023/01/19 09:57:13;;;;;;;0.73;0.73;;;4.30;66.40;;;3.53;50.77;93849.41;4995373;28;20201;-33
2023/01/19 09:59:42;;;;;;;0.70;0.70;;;4.20;66.50;;;3.54;51.75;93851.03;4994690;28;20194;-34
2023/01/19 10:02:45;;;;;;;0.80;0.80;;;4.20;67.10;;;3.61;51.99;93836.34;4995373;28;20206;-33
2023/01/19 10:05:29;;;;;;;0.80;0.80;;;4.30;66.70;;;3.57;50.30;93837.69;5062605;28;20661;-33
2023/01/19 10:08:09;;;;;;;0.70;0.70;;;4.30;65.30;;;3.53;48.39;93839.84;5062809;28;20281;-33
2023/01/19 10:10:39;;;;;;;0.80;0.80;;;4.20;64.20;;;3.51;49.08;93831.41;5063234;28;20190;-33
2023/01/19 10:13:41;;;;;;;0.70;0.70;;;4.20;65.50;;;3.53;48.16;93824.28;4995297;28;20179;-33
2023/01/19 10:17:05;;;;;;;0.80;0.80;;;4.20;64.20;;;3.45;46.83;93823.56;4995342;28;20198;-33
2023/01/19 10:19:41;;;;;;;0.80;0.80;;;4.10;63.10;;;3.42;47.97;93822.13;4978534;28;20621;-33
2023/01/19 10:22:27;;;;;;;0.70;0.70;;;4.10;64.40;;;3.44;47.60;93827.94;5062417;28;20186;-33
2023/01/19 10:24:58;;;;;;;0.70;0.70;;;4.10;63.20;;;3.43;47.64;93838.47;4993927;28;20218;-33
2023/01/19 10:27:30;;;;;;;0.70;0.70;;;4.10;64.10;;;3.40;47.03;93833.63;4995194;28;20178;-33
2023/01/19 10:29:59;;;;;;;0.60;0.60;;;4.10;63.30;;;3.38;47.11;93836.38;5062646;28;20221;-33
2023/01/19 10:32:37;;;;;;;0.70;0.70;;;4.10;63.80;;;3.34;46.80;93828.19;5062296;28;20190;-33
2023/01/19 10:35:22;;;;;;;0.80;0.80;;;4.00;63.50;;;3.34;47.80;93828.19;5062621;28;20187;-33
2023/01/19 10:37:57;;;;;;;0.70;0.70;;;4.00;64.20;;;3.36;48.40;93828.00;4994825;28;20189;-33
2023/01/19 10:40:41;;;;;;;0.73;0.73;;;4.00;64.50;;;3.35;48.37;93832.34;5059792;28;20190;-33
2023/01/19 10:43:33;;;;;;;0.70;0.70;;;4.10;64.10;;;3.33;47.68;93829.16;5061965;28;20204;-33
2023/01/19 10:46:21;;;;;;;0.70;0.70;;;4.00;64.00;;;3.35;48.88;93834.94;4995070;28;20206;-33
2023/01/19 10:48:51;;;;;;;0.70;0.70;;;4.00;64.70;;;3.36;48.30;93831.38;5045564;28;20186;-33
2023/01/19 10:51:19;;;;;;;0.75;0.75;;;4.00;64.30;;;3.36;48.92;93826.19;4994612;28;20194;-33
2023/01/19 10:53:57;;;;;;;0.80;0.80;;;4.10;65.10;;;3.37;48.56;93832.22;5061478;28;20259;-33
2023/01/19 10:56:33;;;;;;;0.75;0.75;;;4.00;64.50;;;3.36;49.08;93826.19;4994642;28;20515;-33